Time;durP1;ratioP1;P1;durP2;ratioP2;P2;SDS_P1;SDS_P2;PMS_P1;PMS_P2;Temp;Humidity;BMP_temperature;BMP_pressure;BME280_temperature;BME280_humidity;BME280_pressure;Samples;Min_cycle;Max_cycle;Signal;HPM_P1;HPM_P2
2022/10/06 00:01:41;;;;;;;4.87;2.00;;;;;;;;;;5115858;27;20200;-75
2022/10/06 00:04:07;;;;;;;3.73;1.90;;;;;;;;;;5101835;27;20181;-75
2022/10/06 00:06:32;;;;;;;5.50;2.00;;;;;;;;;;5101149;27;20629;-74
2022/10/06 00:08:58;;;;;;;3.43;1.90;;;;;;;;;;5101619;28;20175;-74
2022/10/06 00:11:23;;;;;;;5.20;1.90;;;;;;;;;;5101275;27;20182;-75
2022/10/06 00:13:48;;;;;;;5.20;1.93;;;;;;;;;;5099834;28;20174;-75
2022/10/06 00:16:16;;;;;;;3.57;2.37;;;;;;;;;;5103242;27;20180;-75
2022/10/06 00:18:42;;;;;;;5.90;2.00;;;;;;;;;;5118406;27;20185;-75
2022/10/06 00:21:07;;;;;;;3.27;2.10;;;;;;;;;;5105490;28;20195;-75
2022/10/06 00:23:32;;;;;;;5.57;2.20;;;;;;;;;;5102433;28;20198;-75
2022/10/06 00:25:58;;;;;;;3.07;1.90;;;;;;;;;;5110147;28;20182;-74
2022/10/06 00:28:23;;;;;;;2.43;2.20;;;;;;;;;;5101713;28;20179;-75
2022/10/06 00:30:49;;;;;;;2.30;2.10;;;;;;;;;;5106624;28;20186;-75
2022/10/06 00:33:16;;;;;;;3.23;1.80;;;;;;;;;;5103056;28;20203;-75
2022/10/06 00:35:42;;;;;;;4.67;2.03;;;;;;;;;;5099974;28;20177;-75
2022/10/06 00:38:09;;;;;;;4.33;2.30;;;;;;;;;;5121753;28;20175;-75
2022/10/06 00:40:41;;;;;;;3.73;1.93;;;;;;;;;;5106781;28;20273;-74
2022/10/06 00:43:26;;;;;;;6.10;2.20;;;;;;;;;;5119038;28;20184;-75
2022/10/06 00:45:51;;;;;;;2.53;2.03;;;;;;;;;;5101125;28;20194;-75
2022/10/06 00:48:23;;;;;;;2.50;2.30;;;;;;;;;;5117417;28;20256;-75
2022/10/06 00:50:53;;;;;;;3.13;2.00;;;;;;;;;;5121069;28;20202;-75
2022/10/06 00:53:19;;;;;;;3.30;2.13;;;;;;;;;;5104481;27;20181;-74
2022/10/06 00:55:44;;;;;;;3.37;1.93;;;;;;;;;;5124162;28;20184;-75
2022/10/06 00:58:09;;;;;;;5.47;2.27;;;;;;;;;;5094927;28;20211;-75
2022/10/06 01:00:35;;;;;;;3.50;2.20;;;;;;;;;;5095789;28;20237;-74
2022/10/06 01:03:04;;;;;;;3.20;2.00;;;;;;;;;;5097433;28;20281;-75
2022/10/06 01:05:30;;;;;;;2.57;2.23;;;;;;;;;;5106238;28;20184;-74
2022/10/06 01:07:56;;;;;;;4.03;2.03;;;;;;;;;;5095222;28;20195;-75
2022/10/06 01:10:21;;;;;;;3.67;2.23;;;;;;;;;;5101711;28;20179;-74
2022/10/06 01:12:47;;;;;;;4.63;2.07;;;;;;;;;;5099775;28;20166;-75
2022/10/06 01:15:12;;;;;;;6.90;2.57;;;;;;;;;;5106559;28;20177;-75
2022/10/06 01:17:38;;;;;;;5.23;1.90;;;;;;;;;;5092462;28;20169;-75
2022/10/06 01:20:07;;;;;;;3.30;1.90;;;;;;;;;;5098317;28;20189;-75
2022/10/06 01:22:40;;;;;;;8.00;2.33;;;;;;;;;;5098012;28;20202;-75
2022/10/06 01:25:06;;;;;;;3.43;2.33;;;;;;;;;;5100063;28;20171;-75
2022/10/06 01:27:32;;;;;;;3.90;2.40;;;;;;;;;;5092645;28;20184;-75
2022/10/06 01:29:58;;;;;;;4.13;2.47;;;;;;;;;;5099376;28;20183;-75
2022/10/06 01:32:24;;;;;;;5.70;2.77;;;;;;;;;;5104868;28;20252;-74
2022/10/06 01:34:49;;;;;;;8.70;2.60;;;;;;;;;;5101256;28;20181;-75
2022/10/06 01:37:15;;;;;;;4.77;2.47;;;;;;;;;;5101579;28;20188;-75
2022/10/06 01:39:40;;;;;;;3.73;2.27;;;;;;;;;;5105040;28;20167;-74
2022/10/06 01:42:05;;;;;;;4.07;2.60;;;;;;;;;;5103837;28;20220;-75
2022/10/06 01:44:31;;;;;;;3.73;2.33;;;;;;;;;;5099201;28;20227;-75
2022/10/06 01:46:56;;;;;;;7.20;2.87;;;;;;;;;;5101479;28;20170;-74
2022/10/06 01:49:21;;;;;;;3.30;2.33;;;;;;;;;;5105960;28;20317;-74
2022/10/06 01:51:46;;;;;;;3.37;2.37;;;;;;;;;;5104807;28;20224;-74
2022/10/06 01:54:12;;;;;;;4.33;2.60;;;;;;;;;;5104111;28;20186;-75
2022/10/06 01:56:37;;;;;;;5.00;2.93;;;;;;;;;;5107331;28;20176;-75
2022/10/06 01:59:02;;;;;;;3.33;2.10;;;;;;;;;;5103500;28;20229;-75
2022/10/06 02:01:28;;;;;;;2.73;2.27;;;;;;;;;;5105156;28;20201;-74
2022/10/06 02:03:53;;;;;;;4.27;2.83;;;;;;;;;;5098691;28;20221;-75
2022/10/06 02:06:18;;;;;;;4.03;2.40;;;;;;;;;;5107481;28;20459;-74
2022/10/06 02:08:43;;;;;;;2.73;2.47;;;;;;;;;;5103863;28;20179;-75
2022/10/06 02:11:09;;;;;;;3.23;2.70;;;;;;;;;;5097067;28;20182;-75
2022/10/06 02:13:35;;;;;;;3.97;2.57;;;;;;;;;;5100885;28;20206;-75
2022/10/06 02:16:00;;;;;;;4.03;2.67;;;;;;;;;;5103688;28;20182;-75
2022/10/06 02:18:25;;;;;;;4.57;2.67;;;;;;;;;;5103620;28;20255;-75
2022/10/06 02:20:51;;;;;;;4.47;2.70;;;;;;;;;;5104198;28;20200;-75
2022/10/06 02:23:16;;;;;;;3.10;2.33;;;;;;;;;;5103261;28;20178;-74
2022/10/06 02:25:41;;;;;;;3.20;2.40;;;;;;;;;;5107443;28;20275;-75
2022/10/06 02:28:06;;;;;;;4.77;2.67;;;;;;;;;;5095636;28;20259;-76
2022/10/06 02:30:31;;;;;;;4.40;3.00;;;;;;;;;;5107293;28;20169;-75
2022/10/06 02:32:57;;;;;;;3.27;2.70;;;;;;;;;;5100061;28;20179;-75
2022/10/06 02:35:22;;;;;;;4.30;2.70;;;;;;;;;;5105901;28;20182;-75
2022/10/06 02:37:48;;;;;;;3.83;2.50;;;;;;;;;;5100070;28;20180;-75
2022/10/06 02:40:15;;;;;;;3.93;2.57;;;;;;;;;;5096584;28;20171;-75
2022/10/06 02:42:40;;;;;;;7.20;2.77;;;;;;;;;;5107603;28;20209;-74
2022/10/06 02:45:06;;;;;;;4.73;3.30;;;;;;;;;;5101799;28;20179;-75
2022/10/06 02:47:31;;;;;;;5.87;3.67;;;;;;;;;;5096035;28;20179;-75
2022/10/06 02:49:58;;;;;;;8.23;3.43;;;;;;;;;;5097223;28;20169;-75
2022/10/06 02:52:28;;;;;;;6.87;2.90;;;;;;;;;;5098310;28;20187;-75
2022/10/06 02:54:54;;;;;;;5.03;3.20;;;;;;;;;;5083690;28;20181;-75
2022/10/06 02:57:19;;;;;;;2.90;2.60;;;;;;;;;;5085577;28;20179;-75
2022/10/06 02:59:44;;;;;;;3.87;3.10;;;;;;;;;;5090520;28;20253;-75
2022/10/06 03:02:09;;;;;;;4.93;3.40;;;;;;;;;;5097351;28;20208;-75
2022/10/06 03:04:35;;;;;;;6.07;3.73;;;;;;;;;;5097601;28;20200;-75
2022/10/06 03:07:00;;;;;;;5.27;3.40;;;;;;;;;;5100437;28;20322;-75
2022/10/06 03:09:25;;;;;;;8.07;3.80;;;;;;;;;;5102091;28;20185;-75
2022/10/06 03:11:50;;;;;;;7.17;3.13;;;;;;;;;;5101687;28;20192;-74
2022/10/06 03:14:15;;;;;;;3.80;3.40;;;;;;;;;;5101475;28;20226;-75
2022/10/06 03:16:42;;;;;;;4.57;2.93;;;;;;;;;;5099208;28;20187;-75
2022/10/06 03:19:08;;;;;;;4.03;3.37;;;;;;;;;;5100093;28;20235;-75
2022/10/06 03:21:38;;;;;;;4.13;3.40;;;;;;;;;;5100615;27;20217;-75
2022/10/06 03:24:03;;;;;;;5.80;3.20;;;;;;;;;;5106523;28;20202;-75
2022/10/06 03:26:33;;;;;;;4.97;3.17;;;;;;;;;;5093092;28;20176;-75
2022/10/06 03:28:59;;;;;;;3.87;3.40;;;;;;;;;;5085445;28;20270;-75
2022/10/06 03:31:24;;;;;;;6.93;3.83;;;;;;;;;;5081259;28;20172;-75
2022/10/06 03:33:50;;;;;;;4.27;3.87;;;;;;;;;;5106756;27;20230;-74
2022/10/06 03:36:17;;;;;;;5.00;3.83;;;;;;;;;;5094874;28;20687;-75
2022/10/06 03:38:42;;;;;;;3.80;3.47;;;;;;;;;;5105177;28;20179;-75
2022/10/06 03:41:09;;;;;;;9.67;4.43;;;;;;;;;;5098690;28;20575;-75
2022/10/06 03:43:35;;;;;;;8.10;5.00;;;;;;;;;;5104812;28;20231;-75
2022/10/06 03:46:00;;;;;;;4.67;4.23;;;;;;;;;;5102957;28;20172;-75
2022/10/06 03:48:26;;;;;;;5.67;4.30;;;;;;;;;;5110553;28;20178;-75
2022/10/06 03:51:02;;;;;;;6.50;4.20;;;;;;;;;;5096547;28;20198;-75
2022/10/06 03:53:28;;;;;;;9.13;4.17;;;;;;;;;;5102112;28;20180;-75
2022/10/06 03:56:00;;;;;;;7.63;4.30;;;;;;;;;;5096715;28;20178;-75
2022/10/06 03:58:26;;;;;;;5.20;4.07;;;;;;;;;;5110703;28;20181;-75
2022/10/06 04:01:01;;;;;;;6.40;4.13;;;;;;;;;;5119483;27;20276;-75
2022/10/06 04:03:27;;;;;;;4.47;4.07;;;;;;;;;;5116519;27;20177;-75
2022/10/06 04:05:53;;;;;;;5.63;4.37;;;;;;;;;;5104820;27;20259;-75
2022/10/06 04:08:18;;;;;;;5.27;4.13;;;;;;;;;;5100774;27;20177;-74
2022/10/06 04:10:43;;;;;;;7.63;5.37;;;;;;;;;;5107560;27;20188;-75
2022/10/06 04:13:08;;;;;;;7.57;4.50;;;;;;;;;;5106766;27;20186;-75
2022/10/06 04:15:33;;;;;;;4.70;4.30;;;;;;;;;;5100550;28;20191;-75
2022/10/06 04:17:59;;;;;;;6.80;4.60;;;;;;;;;;5098509;28;20184;-75
2022/10/06 04:20:24;;;;;;;5.60;4.30;;;;;;;;;;5103535;27;20312;-75
2022/10/06 04:22:49;;;;;;;6.00;4.23;;;;;;;;;;5114043;27;20174;-75
2022/10/06 04:25:14;;;;;;;5.73;4.50;;;;;;;;;;5102815;27;20176;-75
2022/10/06 04:27:39;;;;;;;6.70;4.37;;;;;;;;;;5106539;28;20197;-75
2022/10/06 04:30:05;;;;;;;5.93;4.27;;;;;;;;;;5112624;28;20175;-75
2022/10/06 04:32:31;;;;;;;6.93;4.70;;;;;;;;;;5103023;28;20278;-74
2022/10/06 04:34:56;;;;;;;5.53;4.40;;;;;;;;;;5100901;28;20210;-75
2022/10/06 04:37:21;;;;;;;9.67;4.50;;;;;;;;;;5119167;28;20184;-75
2022/10/06 04:39:46;;;;;;;4.30;3.90;;;;;;;;;;5107057;28;20184;-75
2022/10/06 04:42:12;;;;;;;4.80;3.93;;;;;;;;;;5103429;28;20205;-75
2022/10/06 04:44:37;;;;;;;8.80;4.40;;;;;;;;;;5098357;28;20205;-75
2022/10/06 04:47:02;;;;;;;5.77;4.47;;;;;;;;;;5094553;28;20175;-75
2022/10/06 04:49:28;;;;;;;3.90;3.53;;;;;;;;;;5105092;28;20174;-75
2022/10/06 04:51:53;;;;;;;6.87;4.20;;;;;;;;;;5098496;28;20188;-75
2022/10/06 04:54:18;;;;;;;6.30;4.83;;;;;;;;;;5122486;28;20176;-78
2022/10/06 04:56:43;;;;;;;7.03;4.07;;;;;;;;;;5101292;28;20183;-75
2022/10/06 04:59:09;;;;;;;4.90;4.37;;;;;;;;;;5096402;28;20222;-75
2022/10/06 05:01:34;;;;;;;9.37;4.60;;;;;;;;;;5103290;28;20197;-74
2022/10/06 05:04:00;;;;;;;8.00;4.23;;;;;;;;;;5099768;28;20167;-75
2022/10/06 05:06:27;;;;;;;5.03;4.50;;;;;;;;;;5101720;28;20181;-75
2022/10/06 05:08:53;;;;;;;4.93;4.37;;;;;;;;;;5098801;28;20230;-75
2022/10/06 05:11:19;;;;;;;6.73;4.00;;;;;;;;;;5102256;28;20180;-75
2022/10/06 05:13:44;;;;;;;5.13;4.60;;;;;;;;;;5101412;28;20242;-75
2022/10/06 05:16:11;;;;;;;12.90;3.93;;;;;;;;;;5104800;28;20173;-75
2022/10/06 05:18:36;;;;;;;5.37;4.57;;;;;;;;;;5108005;28;20180;-75
2022/10/06 05:21:06;;;;;;;6.97;4.47;;;;;;;;;;5099323;28;20195;-75
2022/10/06 05:23:33;;;;;;;5.27;4.77;;;;;;;;;;5101162;28;20173;-75
2022/10/06 05:25:59;;;;;;;6.07;4.23;;;;;;;;;;5102071;28;20261;-74
2022/10/06 05:28:25;;;;;;;8.07;4.20;;;;;;;;;;5103442;28;20172;-74
2022/10/06 05:31:02;;;;;;;5.90;4.70;;;;;;;;;;5103410;28;20177;-75
2022/10/06 05:33:29;;;;;;;8.17;4.40;;;;;;;;;;5104897;27;20178;-75
2022/10/06 05:35:55;;;;;;;4.97;3.80;;;;;;;;;;5096453;28;20178;-75
2022/10/06 05:38:20;;;;;;;5.73;3.63;;;;;;;;;;5108092;28;20182;-75
2022/10/06 05:40:46;;;;;;;8.57;4.00;;;;;;;;;;5106410;28;20200;-75
2022/10/06 05:43:11;;;;;;;4.30;2.93;;;;;;;;;;5101945;28;20211;-75
2022/10/06 05:45:36;;;;;;;3.73;3.00;;;;;;;;;;5103927;28;20178;-74
2022/10/06 05:48:01;;;;;;;3.47;2.87;;;;;;;;;;5107287;28;20183;-75
2022/10/06 05:50:26;;;;;;;3.37;3.00;;;;;;;;;;5106263;28;20342;-75
2022/10/06 05:52:55;;;;;;;5.53;2.77;;;;;;;;;;5103642;28;20472;-75
2022/10/06 05:55:20;;;;;;;4.03;2.53;;;;;;;;;;5103954;28;20229;-75
2022/10/06 05:57:45;;;;;;;3.77;2.23;;;;;;;;;;5102856;28;20239;-75
2022/10/06 06:00:11;;;;;;;3.93;2.10;;;;;;;;;;5097472;28;20225;-75
2022/10/06 06:02:36;;;;;;;2.73;1.90;;;;;;;;;;5083210;28;20334;-75
2022/10/06 06:05:01;;;;;;;4.40;2.50;;;;;;;;;;5079598;28;20171;-74
2022/10/06 06:07:26;;;;;;;5.37;2.20;;;;;;;;;;5089896;28;20186;-74
2022/10/06 06:09:52;;;;;;;4.87;2.30;;;;;;;;;;5083776;28;20183;-75
2022/10/06 06:12:17;;;;;;;4.33;2.10;;;;;;;;;;5083008;28;20269;-74
2022/10/06 06:17:29;;;;;;;2.60;2.00;;;;;;;;;;5078060;28;20293;-75
2022/10/06 06:19:54;;;;;;;7.93;3.87;;;;;;;;;;5086876;28;20182;-75
2022/10/06 06:22:19;;;;;;;4.37;2.40;;;;;;;;;;5093168;28;20202;-75
2022/10/06 06:24:45;;;;;;;3.13;2.00;;;;;;;;;;5081879;28;20181;-75
2022/10/06 06:27:10;;;;;;;4.17;2.30;;;;;;;;;;5087427;28;20172;-75
2022/10/06 06:29:36;;;;;;;12.63;2.37;;;;;;;;;;5085142;28;20162;-75
2022/10/06 06:32:01;;;;;;;2.27;1.97;;;;;;;;;;5081876;28;20184;-74
2022/10/06 06:34:27;;;;;;;2.20;2.00;;;;;;;;;;5081204;28;20188;-75
2022/10/06 06:36:55;;;;;;;2.20;2.00;;;;;;;;;;5099431;28;20171;-74
2022/10/06 06:39:21;;;;;;;4.77;2.20;;;;;;;;;;5092272;28;20169;-75
2022/10/06 06:41:46;;;;;;;3.87;2.50;;;;;;;;;;5081742;28;20259;-75
2022/10/06 06:44:12;;;;;;;7.47;2.67;;;;;;;;;;5080746;28;20255;-75
2022/10/06 06:46:38;;;;;;;4.53;2.60;;;;;;;;;;5079157;28;20170;-75
2022/10/06 06:49:04;;;;;;;4.63;2.50;;;;;;;;;;5083994;28;20189;-75
2022/10/06 06:51:34;;;;;;;5.37;2.20;;;;;;;;;;5082670;28;20216;-75
2022/10/06 06:54:01;;;;;;;5.20;3.53;;;;;;;;;;5084665;28;20205;-75
2022/10/06 06:56:27;;;;;;;5.10;2.43;;;;;;;;;;5098646;27;20185;-75
2022/10/06 06:58:52;;;;;;;2.87;2.30;;;;;;;;;;5080821;28;20223;-75
2022/10/06 07:01:18;;;;;;;2.17;1.97;;;;;;;;;;5099519;27;20208;-75
2022/10/06 07:03:53;;;;;;;2.43;1.53;;;;;;;;;;5109266;27;20171;-74
2022/10/06 07:06:19;;;;;;;3.50;2.00;;;;;;;;;;5120967;27;20263;-75
2022/10/06 07:08:45;;;;;;;4.53;2.20;;;;;;;;;;5104700;27;20330;-75
2022/10/06 07:11:24;;;;;;;4.80;1.93;;;;;;;;;;5102065;27;20181;-74
2022/10/06 07:13:51;;;;;;;4.10;2.07;;;;;;;;;;5106002;27;20247;-75
2022/10/06 07:27:21;;;;;;;2.60;1.60;;;;;;;;;;5123340;27;20211;-75
2022/10/06 07:29:46;;;;;;;3.40;1.60;;;;;;;;;;5104939;27;20184;-75
2022/10/06 07:32:12;;;;;;;2.77;2.13;;;;;;;;;;5107688;27;20516;-75
2022/10/06 07:34:38;;;;;;;3.73;2.27;;;;;;;;;;5109390;27;20176;-75
2022/10/06 07:37:03;;;;;;;2.83;1.77;;;;;;;;;;5114405;27;20188;-75
2022/10/06 07:39:30;;;;;;;5.47;1.90;;;;;;;;;;5104350;27;20189;-75
2022/10/06 07:41:56;;;;;;;2.13;1.60;;;;;;;;;;5099797;28;20291;-74
2022/10/06 07:44:21;;;;;;;2.90;1.90;;;;;;;;;;5117189;27;20260;-75
2022/10/06 07:46:47;;;;;;;12.30;2.33;;;;;;;;;;5100303;27;20195;-74
2022/10/06 07:49:13;;;;;;;3.67;1.80;;;;;;;;;;5103308;27;20179;-75
2022/10/06 07:51:38;;;;;;;2.03;1.33;;;;;;;;;;5106048;27;20194;-74
2022/10/06 07:54:05;;;;;;;3.90;2.00;;;;;;;;;;5103951;27;20179;-75
2022/10/06 07:56:30;;;;;;;5.97;1.83;;;;;;;;;;5101695;27;20175;-74
2022/10/06 07:58:57;;;;;;;3.70;2.17;;;;;;;;;;5096393;27;20179;-74
2022/10/06 08:01:24;;;;;;;4.13;1.53;;;;;;;;;;5116966;27;20196;-75
2022/10/06 08:03:49;;;;;;;3.50;1.47;;;;;;;;;;5128582;27;20167;-75
2022/10/06 08:06:16;;;;;;;2.23;1.60;;;;;;;;;;5097396;27;20165;-75
2022/10/06 08:08:44;;;;;;;4.67;2.00;;;;;;;;;;5108808;27;20181;-75
2022/10/06 08:11:10;;;;;;;3.20;1.50;;;;;;;;;;5097167;27;20190;-75
2022/10/06 08:13:37;;;;;;;3.80;2.77;;;;;;;;;;5132865;27;20498;-75
2022/10/06 08:16:07;;;;;;;3.00;1.40;;;;;;;;;;5099053;27;20225;-75
2022/10/06 08:18:32;;;;;;;7.03;1.47;;;;;;;;;;5122899;27;20236;-75
2022/10/06 08:20:57;;;;;;;3.80;1.40;;;;;;;;;;5100900;28;20206;-75
2022/10/06 08:23:22;;;;;;;2.50;1.33;;;;;;;;;;5122804;27;20180;-75
2022/10/06 08:25:49;;;;;;;5.13;2.23;;;;;;;;;;5106996;28;20179;-75
2022/10/06 08:28:14;;;;;;;3.23;1.60;;;;;;;;;;5101651;28;20168;-75
2022/10/06 08:30:40;;;;;;;4.87;1.93;;;;;;;;;;5100002;27;20231;-75
2022/10/06 08:33:05;;;;;;;3.53;2.00;;;;;;;;;;5103759;28;20183;-75
2022/10/06 08:35:31;;;;;;;6.63;2.10;;;;;;;;;;5123617;28;20198;-74
2022/10/06 08:37:56;;;;;;;4.20;2.10;;;;;;;;;;5125092;28;20176;-75
2022/10/06 08:40:22;;;;;;;5.07;1.90;;;;;;;;;;5104767;27;20172;-75
2022/10/06 08:42:48;;;;;;;5.77;1.80;;;;;;;;;;5114736;27;20226;-75
2022/10/06 08:45:22;;;;;;;3.43;1.67;;;;;;;;;;5102427;27;20270;-74
2022/10/06 08:47:59;;;;;;;2.07;1.60;;;;;;;;;;5130930;27;20193;-75
2022/10/06 08:50:25;;;;;;;5.27;1.90;;;;;;;;;;5101601;27;20199;-75
2022/10/06 08:52:50;;;;;;;3.90;1.37;;;;;;;;;;5109488;27;20176;-75
2022/10/06 08:55:37;;;;;;;3.70;1.65;;;;;;;;;;5110073;27;20191;-75
2022/10/06 08:58:21;;;;;;;3.67;1.40;;;;;;;;;;5106332;27;20187;-75
2022/10/06 09:00:47;;;;;;;4.17;1.90;;;;;;;;;;5123618;27;20220;-75
2022/10/06 09:03:15;;;;;;;2.70;1.60;;;;;;;;;;5103949;27;20212;-75
2022/10/06 09:05:40;;;;;;;5.00;1.20;;;;;;;;;;5103512;28;20257;-75
2022/10/06 09:08:30;;;;;;;1.93;1.43;;;;;;;;;;5107773;27;20176;-75
2022/10/06 09:11:01;;;;;;;4.77;2.10;;;;;;;;;;5107950;27;20171;-76
2022/10/06 09:13:32;;;;;;;5.10;1.70;;;;;;;;;;5107796;27;20196;-75
2022/10/06 09:16:06;;;;;;;2.30;1.40;;;;;;;;;;5110670;27;20175;-74
2022/10/06 09:18:40;;;;;;;6.57;1.97;;;;;;;;;;5129022;27;20224;-75
2022/10/06 09:21:12;;;;;;;4.13;1.70;;;;;;;;;;5099423;27;20195;-75
2022/10/06 09:23:46;;;;;;;4.70;1.63;;;;;;;;;;5102913;28;20268;-75
2022/10/06 09:26:12;;;;;;;4.27;1.90;;;;;;;;;;5100478;27;20175;-75
2022/10/06 09:28:38;;;;;;;4.50;1.60;;;;;;;;;;5126627;27;20182;-76
2022/10/06 09:31:16;;;;;;;1.97;1.37;;;;;;;;;;5104980;27;20238;-75
2022/10/06 09:33:42;;;;;;;1.73;1.10;;;;;;;;;;5105170;27;20190;-75
2022/10/06 09:36:08;;;;;;;3.63;1.90;;;;;;;;;;5102729;28;20405;-75
2022/10/06 09:38:53;;;;;;;4.20;1.77;;;;;;;;;;5126865;27;20178;-75
2022/10/06 09:41:23;;;;;;;4.60;1.90;;;;;;;;;;5107189;27;20191;-75
2022/10/06 09:43:54;;;;;;;4.33;2.00;;;;;;;;;;5106969;28;20173;-75
2022/10/06 09:46:30;;;;;;;2.80;1.33;;;;;;;;;;5100393;27;20188;-75
2022/10/06 09:49:06;;;;;;;6.50;1.60;;;;;;;;;;5106271;27;20174;-74
2022/10/06 09:51:34;;;;;;;5.27;1.60;;;;;;;;;;5114258;27;20197;-75
2022/10/06 09:54:02;;;;;;;3.40;1.40;;;;;;;;;;5107290;27;20175;-75
2022/10/06 09:56:28;;;;;;;5.23;1.60;;;;;;;;;;5123628;27;20205;-75
2022/10/06 09:58:55;;;;;;;4.90;1.97;;;;;;;;;;5102405;27;20248;-75
2022/10/06 10:01:22;;;;;;;5.70;2.20;;;;;;;;;;5103299;27;20202;-75
2022/10/06 10:03:50;;;;;;;4.87;1.73;;;;;;;;;;5123706;27;20173;-75
2022/10/06 10:06:22;;;;;;;4.83;1.80;;;;;;;;;;5102741;27;20251;-75
2022/10/06 10:08:47;;;;;;;5.27;1.80;;;;;;;;;;5124897;27;20175;-75
2022/10/06 10:14:23;;;;;;;3.57;1.80;;;;;;;;;;5114362;27;20193;-75
2022/10/06 10:16:49;;;;;;;5.17;1.90;;;;;;;;;;5098672;27;20190;-75
2022/10/06 10:19:21;;;;;;;4.70;1.87;;;;;;;;;;5101718;27;20383;-75
2022/10/06 10:21:46;;;;;;;9.73;2.20;;;;;;;;;;5100024;28;20200;-76
2022/10/06 10:24:17;;;;;;;4.57;1.60;;;;;;;;;;5101396;27;20178;-75
2022/10/06 10:26:49;;;;;;;5.80;2.43;;;;;;;;;;5105949;27;20177;-75
2022/10/06 10:29:17;;;;;;;6.00;2.07;;;;;;;;;;5109826;27;20213;-75
2022/10/06 10:31:53;;;;;;;3.20;1.63;;;;;;;;;;5104448;27;20185;-75
2022/10/06 10:34:28;;;;;;;8.27;1.93;;;;;;;;;;5116455;27;20180;-75
2022/10/06 10:37:03;;;;;;;3.73;1.57;;;;;;;;;;5118143;27;20182;-75
2022/10/06 10:39:40;;;;;;;6.70;2.13;;;;;;;;;;5098453;27;20188;-75
2022/10/06 10:42:10;;;;;;;7.80;2.20;;;;;;;;;;5101206;27;20270;-75
2022/10/06 10:44:37;;;;;;;4.37;1.77;;;;;;;;;;5108248;27;20179;-75
2022/10/06 10:47:16;;;;;;;4.50;1.80;;;;;;;;;;5117160;27;20186;-75
2022/10/06 10:49:44;;;;;;;3.37;1.70;;;;;;;;;;5107113;27;20182;-75
2022/10/06 10:52:19;;;;;;;5.07;1.73;;;;;;;;;;5103503;27;20204;-75
2022/10/06 10:54:56;;;;;;;3.20;2.13;;;;;;;;;;5106834;27;20188;-75
2022/10/06 10:57:27;;;;;;;4.60;2.17;;;;;;;;;;5119374;27;20190;-75
2022/10/06 11:00:00;;;;;;;5.73;1.90;;;;;;;;;;5097412;28;20231;-74
2022/10/06 11:02:25;;;;;;;4.03;1.60;;;;;;;;;;5100156;28;20262;-75
2022/10/06 11:04:52;;;;;;;5.50;1.77;;;;;;;;;;5103892;28;20188;-75
2022/10/06 11:07:29;;;;;;;3.60;1.90;;;;;;;;;;5100712;28;20177;-75
2022/10/06 11:10:13;;;;;;;5.77;1.80;;;;;;;;;;5100612;27;20221;-74
2022/10/06 11:12:38;;;;;;;4.13;1.67;;;;;;;;;;5101244;28;20185;-75
2022/10/06 11:15:04;;;;;;;4.63;2.30;;;;;;;;;;5106554;28;20186;-75
2022/10/06 11:17:45;;;;;;;3.87;1.70;;;;;;;;;;5097701;28;20190;-75
2022/10/06 11:20:23;;;;;;;6.40;2.10;;;;;;;;;;5102184;28;20180;-75
2022/10/06 11:22:48;;;;;;;5.40;1.80;;;;;;;;;;5098520;28;20198;-75
2022/10/06 11:25:20;;;;;;;3.07;1.70;;;;;;;;;;5088995;28;20188;-77
2022/10/06 11:27:53;;;;;;;4.93;2.13;;;;;;;;;;5083564;28;20261;-74
2022/10/06 11:30:19;;;;;;;5.63;2.13;;;;;;;;;;5105675;28;20188;-74
2022/10/06 11:32:53;;;;;;;5.70;1.90;;;;;;;;;;5095115;28;20180;-76
2022/10/06 11:35:20;;;;;;;6.67;2.23;;;;;;;;;;5102566;28;20191;-75
2022/10/06 11:37:48;;;;;;;6.40;2.27;;;;;;;;;;5101242;28;20193;-75
2022/10/06 11:40:20;;;;;;;5.73;1.63;;;;;;;;;;5099801;28;20190;-75
2022/10/06 11:43:05;;;;;;;3.57;1.67;;;;;;;;;;5093977;28;20208;-75
2022/10/06 11:45:39;;;;;;;5.37;2.33;;;;;;;;;;5099091;27;20276;-75
2022/10/06 11:48:20;;;;;;;5.53;2.13;;;;;;;;;;5097760;27;20329;-75
2022/10/06 11:50:48;;;;;;;4.07;1.87;;;;;;;;;;5101880;28;20195;-74
2022/10/06 11:53:33;;;;;;;5.57;1.80;;;;;;;;;;5099551;27;20261;-75
2022/10/06 11:56:16;;;;;;;5.20;2.00;;;;;;;;;;5100191;28;20170;-75
2022/10/06 11:58:51;;;;;;;6.00;2.13;;;;;;;;;;5101886;28;20170;-75
2022/10/06 12:01:25;;;;;;;6.47;2.00;;;;;;;;;;5099687;28;20244;-75
2022/10/06 12:04:02;;;;;;;5.13;1.77;;;;;;;;;;5100972;28;20254;-75
2022/10/06 12:06:46;;;;;;;3.90;1.80;;;;;;;;;;5100579;28;20243;-75
2022/10/06 12:09:30;;;;;;;6.90;1.73;;;;;;;;;;5095541;28;20177;-75
2022/10/06 12:11:58;;;;;;;2.93;1.53;;;;;;;;;;5092423;28;20180;-75
2022/10/06 12:14:23;;;;;;;4.43;2.23;;;;;;;;;;5099522;28;20180;-74
2022/10/06 12:16:53;;;;;;;5.57;2.13;;;;;;;;;;5101508;28;20187;-75
2022/10/06 12:19:30;;;;;;;4.57;2.00;;;;;;;;;;5095234;28;20334;-75
2022/10/06 12:22:05;;;;;;;5.47;1.57;;;;;;;;;;5094762;28;20211;-75
2022/10/06 12:24:30;;;;;;;9.60;2.07;;;;;;;;;;5097618;28;20204;-75
2022/10/06 12:27:03;;;;;;;10.23;2.23;;;;;;;;;;5098263;28;20177;-75
2022/10/06 12:29:33;;;;;;;2.77;1.90;;;;;;;;;;5097291;28;20183;-75
2022/10/06 12:32:17;;;;;;;4.93;1.80;;;;;;;;;;5097415;28;20183;-75
2022/10/06 12:34:50;;;;;;;6.17;1.93;;;;;;;;;;5095514;28;20172;-75
2022/10/06 12:37:28;;;;;;;4.67;1.60;;;;;;;;;;5100566;28;20214;-74
2022/10/06 12:40:12;;;;;;;8.57;2.23;;;;;;;;;;5098119;28;20179;-75
2022/10/06 12:42:37;;;;;;;7.73;2.43;;;;;;;;;;5095196;28;20201;-75
2022/10/06 12:45:11;;;;;;;4.67;1.83;;;;;;;;;;5093018;28;20182;-75
2022/10/06 12:47:39;;;;;;;3.67;1.70;;;;;;;;;;5095431;28;21319;-75
2022/10/06 12:50:11;;;;;;;4.53;1.60;;;;;;;;;;5103034;28;20186;-75
2022/10/06 12:52:36;;;;;;;6.10;2.00;;;;;;;;;;5102561;28;20177;-75
2022/10/06 12:55:13;;;;;;;5.73;2.70;;;;;;;;;;5097105;27;20181;-74
2022/10/06 12:57:46;;;;;;;7.10;2.07;;;;;;;;;;5094882;28;20198;-75
2022/10/06 13:00:21;;;;;;;4.83;2.33;;;;;;;;;;5099984;28;20246;-75
2022/10/06 13:02:47;;;;;;;6.30;2.03;;;;;;;;;;5098823;28;20197;-75
2022/10/06 13:05:13;;;;;;;5.40;1.93;;;;;;;;;;5096473;28;20175;-75
2022/10/06 13:07:57;;;;;;;3.60;1.60;;;;;;;;;;5090960;28;20175;-75
2022/10/06 13:10:22;;;;;;;5.70;1.90;;;;;;;;;;5098907;28;20178;-75
2022/10/06 13:12:49;;;;;;;4.63;2.00;;;;;;;;;;5095299;28;20182;-75
2022/10/06 13:15:17;;;;;;;4.07;2.00;;;;;;;;;;5096743;28;20211;-75
2022/10/06 13:18:01;;;;;;;2.90;1.83;;;;;;;;;;5097624;28;20222;-75
2022/10/06 13:20:49;;;;;;;2.27;1.53;;;;;;;;;;5096242;28;20185;-75
2022/10/06 13:23:17;;;;;;;5.87;1.77;;;;;;;;;;5091658;28;20228;-76
2022/10/06 13:25:53;;;;;;;7.87;5.17;;;;;;;;;;5095849;28;20180;-74
2022/10/06 13:28:27;;;;;;;5.53;2.10;;;;;;;;;;5106525;27;20168;-74
2022/10/06 13:30:54;;;;;;;4.57;2.20;;;;;;;;;;5103576;28;20223;-75
2022/10/06 13:33:19;;;;;;;5.90;2.27;;;;;;;;;;5102897;28;20170;-75
2022/10/06 13:35:47;;;;;;;3.40;2.00;;;;;;;;;;5107786;28;20258;-75
2022/10/06 13:38:12;;;;;;;4.83;2.40;;;;;;;;;;5099612;28;20260;-75
2022/10/06 13:40:38;;;;;;;3.67;2.23;;;;;;;;;;5099365;27;20271;-74
2022/10/06 13:43:03;;;;;;;6.87;2.30;;;;;;;;;;5104211;28;20303;-75
2022/10/06 13:45:28;;;;;;;4.67;2.17;;;;;;;;;;5095972;28;20179;-75
2022/10/06 13:48:14;;;;;;;4.40;1.83;;;;;;;;;;5099115;28;20175;-75
2022/10/06 13:50:43;;;;;;;6.87;2.00;;;;;;;;;;5102657;28;20269;-75
2022/10/06 13:53:21;;;;;;;5.07;2.07;;;;;;;;;;5105311;27;20319;-75
2022/10/06 13:55:48;;;;;;;4.70;1.80;;;;;;;;;;5099134;28;20188;-74
2022/10/06 13:58:16;;;;;;;4.30;1.60;;;;;;;;;;5100186;28;20184;-75
2022/10/06 14:00:55;;;;;;;6.90;2.53;;;;;;;;;;5122380;27;20287;-75
2022/10/06 14:03:23;;;;;;;6.03;2.20;;;;;;;;;;5101457;27;20195;-75
2022/10/06 14:05:49;;;;;;;8.30;2.50;;;;;;;;;;5103581;27;20176;-75
2022/10/06 14:08:20;;;;;;;4.93;2.17;;;;;;;;;;5101366;27;20254;-76
2022/10/06 14:10:54;;;;;;;5.43;2.03;;;;;;;;;;5104381;27;20221;-75
2022/10/06 14:13:19;;;;;;;6.07;2.33;;;;;;;;;;5118318;27;20174;-75
2022/10/06 14:15:49;;;;;;;7.47;1.90;;;;;;;;;;5100215;28;20174;-75
2022/10/06 14:18:26;;;;;;;4.50;1.40;;;;;;;;;;5102275;27;20180;-75
2022/10/06 14:20:56;;;;;;;7.53;2.07;;;;;;;;;;5109124;27;20203;-75
2022/10/06 14:23:39;;;;;;;8.73;1.80;;;;;;;;;;5124673;27;20182;-75
2022/10/06 14:26:05;;;;;;;3.97;1.70;;;;;;;;;;5103472;28;20263;-75
2022/10/06 14:28:30;;;;;;;5.83;2.00;;;;;;;;;;5097054;28;20283;-75
2022/10/06 14:30:56;;;;;;;5.67;2.00;;;;;;;;;;5116420;27;20237;-75
2022/10/06 14:33:21;;;;;;;4.30;1.60;;;;;;;;;;5121717;27;20177;-75
2022/10/06 14:35:47;;;;;;;6.93;1.90;;;;;;;;;;5122903;27;20188;-75
2022/10/06 14:38:12;;;;;;;4.33;1.77;;;;;;;;;;5103805;27;20183;-75
2022/10/06 14:40:41;;;;;;;12.07;2.63;;;;;;;;;;5100846;27;20189;-75
2022/10/06 14:43:06;;;;;;;3.73;1.90;;;;;;;;;;5102475;27;20210;-75
2022/10/06 14:45:52;;;;;;;5.80;1.83;;;;;;;;;;5101014;27;20192;-75
2022/10/06 14:48:17;;;;;;;6.87;2.10;;;;;;;;;;5099621;27;20202;-75
2022/10/06 14:50:43;;;;;;;3.33;1.43;;;;;;;;;;5099350;28;20319;-75
2022/10/06 14:53:11;;;;;;;3.10;1.67;;;;;;;;;;5104578;27;20184;-75
2022/10/06 14:55:36;;;;;;;4.87;1.80;;;;;;;;;;5108990;27;20194;-76
2022/10/06 14:58:03;;;;;;;5.30;2.53;;;;;;;;;;5102892;27;20183;-75
2022/10/06 15:00:28;;;;;;;5.27;1.83;;;;;;;;;;5107002;28;20234;-75
2022/10/06 15:02:54;;;;;;;6.83;2.37;;;;;;;;;;5092407;28;20209;-75
2022/10/06 15:05:20;;;;;;;4.67;2.60;;;;;;;;;;5105487;28;20261;-75
2022/10/06 15:10:52;;;;;;;3.07;1.63;;;;;;;;;;5042748;28;20187;-75